createdAt,value
2019-02-19T00:02:05.415Z,0.40
2019-02-19T00:04:36.396Z,0.40
2019-02-19T00:07:07.363Z,0.30
2019-02-19T00:09:38.098Z,0.30
2019-02-19T00:12:08.817Z,0.30
2019-02-19T00:14:39.692Z,0.40
2019-02-19T00:17:10.606Z,0.30
2019-02-19T00:19:41.432Z,0.30
2019-02-19T00:22:12.286Z,0.30
2019-02-19T00:24:42.967Z,0.30
2019-02-19T00:27:14.059Z,0.30
2019-02-19T00:29:44.779Z,0.30
2019-02-19T00:32:15.694Z,0.20
2019-02-19T00:34:46.323Z,0.20
2019-02-19T00:37:17.072Z,0.20
2019-02-19T00:39:47.841Z,0.20
2019-02-19T00:42:18.740Z,0.20
2019-02-19T00:44:49.657Z,0.20
2019-02-19T00:47:20.473Z,0.20
2019-02-19T00:49:51.216Z,0.20
2019-02-19T00:52:22.126Z,0.20
2019-02-19T00:54:52.917Z,0.20
2019-02-19T00:57:23.875Z,0.20
2019-02-19T00:59:54.662Z,0.30
2019-02-19T01:02:25.430Z,0.30
2019-02-19T01:04:56.210Z,0.40
2019-02-19T01:07:26.947Z,0.40
2019-02-19T01:09:57.640Z,0.50
2019-02-19T01:12:28.344Z,0.50
2019-02-19T01:15:13.410Z,0.50
2019-02-19T01:17:44.139Z,0.50
2019-02-19T01:20:14.938Z,0.50
2019-02-19T01:22:45.853Z,0.60
2019-02-19T01:30:27.190Z,0.80
2019-02-19T01:32:57.971Z,0.70
2019-02-19T01:35:28.671Z,0.70
2019-02-19T01:37:59.454Z,0.70
2019-02-19T01:40:30.112Z,0.70
2019-02-19T01:43:00.827Z,0.70
2019-02-19T01:50:33.899Z,0.90
2019-02-19T01:53:04.679Z,0.90
2019-02-19T01:55:35.440Z,0.90
2019-02-19T01:58:06.219Z,0.90
2019-02-19T02:00:37.016Z,0.90
2019-02-19T02:03:07.827Z,0.90
2019-02-19T02:05:38.456Z,0.90
2019-02-19T02:08:09.216Z,1.00
2019-02-19T02:10:40.003Z,0.90
2019-02-19T02:13:10.674Z,0.90
2019-02-19T02:15:42.883Z,0.90
2019-02-19T02:18:13.888Z,1.00
2019-02-19T02:20:44.693Z,1.00
2019-02-19T02:23:15.368Z,1.10
2019-02-19T02:25:46.106Z,1.10
2019-02-19T02:28:16.845Z,1.20
2019-02-19T02:30:47.699Z,1.20
2019-02-19T02:33:18.488Z,1.20
2019-02-19T02:35:49.273Z,1.20
2019-02-19T02:38:19.958Z,1.30
2019-02-19T02:40:50.839Z,1.30
2019-02-19T02:43:21.521Z,1.30
2019-02-19T02:45:53.677Z,1.30
2019-02-19T02:48:24.619Z,1.20
2019-02-19T02:50:55.443Z,1.20
2019-02-19T02:53:26.208Z,1.20
2019-02-19T02:55:57.085Z,1.20
2019-02-19T02:58:27.772Z,1.20
2019-02-19T03:00:58.560Z,1.20
2019-02-19T03:03:29.253Z,1.20
2019-02-19T03:06:18.512Z,1.20
2019-02-19T03:08:49.136Z,1.10
2019-02-19T03:11:20.020Z,1.20
2019-02-19T03:13:50.828Z,1.20
2019-02-19T03:16:21.575Z,1.20
2019-02-19T03:18:52.286Z,1.20
2019-02-19T03:21:23.050Z,1.20
2019-02-19T03:23:53.762Z,1.20
2019-02-19T03:26:24.497Z,1.20
2019-02-19T03:28:55.278Z,1.20
2019-02-19T03:31:26.100Z,1.20
2019-02-19T03:33:56.664Z,1.20
2019-02-19T03:36:27.338Z,1.20
2019-02-19T03:38:58.033Z,1.30
2019-02-19T03:41:29.975Z,1.20
2019-02-19T03:44:00.659Z,1.20
2019-02-19T03:46:32.662Z,1.20
2019-02-19T03:49:03.425Z,1.30
2019-02-19T03:51:34.300Z,1.30
2019-02-19T03:54:04.904Z,1.40
2019-02-19T03:56:35.671Z,1.40
2019-02-19T03:59:06.463Z,1.30
2019-02-19T04:01:37.333Z,1.40
2019-02-19T04:04:08.019Z,1.40
2019-02-19T04:06:38.838Z,1.40
2019-02-19T04:09:09.468Z,1.40
2019-02-19T04:11:40.468Z,1.40
2019-02-19T04:14:12.184Z,1.40
2019-02-19T04:16:42.998Z,1.40
2019-02-19T04:19:13.777Z,1.40
2019-02-19T04:21:44.536Z,1.40
2019-02-19T04:24:15.335Z,1.40
2019-02-19T04:26:46.125Z,1.40
2019-02-19T04:29:17.935Z,1.40
2019-02-19T04:31:48.717Z,1.30
2019-02-19T04:34:19.375Z,1.40
2019-02-19T04:36:50.157Z,1.40
2019-02-19T04:39:20.874Z,1.40
2019-02-19T04:41:51.620Z,1.40
2019-02-19T04:44:22.413Z,1.40
2019-02-19T04:46:53.177Z,1.40
2019-02-19T04:49:23.881Z,1.40
2019-02-19T04:51:54.659Z,1.40
2019-02-19T04:54:25.445Z,1.30
2019-02-19T04:56:56.169Z,1.30
2019-02-19T04:59:26.816Z,1.30
2019-02-19T05:01:58.633Z,1.30
2019-02-19T05:04:29.405Z,1.30
2019-02-19T05:07:00.283Z,1.20
2019-02-19T05:09:31.072Z,1.20
2019-02-19T05:12:01.837Z,1.20
2019-02-19T05:14:32.527Z,1.20
2019-02-19T05:17:03.295Z,1.20
2019-02-19T05:19:33.992Z,1.20
2019-02-19T05:22:04.771Z,1.20
2019-02-19T05:24:35.458Z,1.20
2019-02-19T05:27:06.243Z,1.20
2019-02-19T05:29:36.938Z,1.20
2019-02-19T05:32:07.718Z,1.30
2019-02-19T05:34:38.426Z,1.30
2019-02-19T05:37:09.269Z,1.30
2019-02-19T05:39:39.874Z,1.40
2019-02-19T05:42:10.753Z,1.40
2019-02-19T05:44:41.474Z,1.40
2019-02-19T05:47:12.254Z,1.40
2019-02-19T05:49:42.899Z,1.40
2019-02-19T05:52:13.670Z,1.50
2019-02-19T05:54:44.659Z,1.50
2019-02-19T05:57:15.453Z,1.50
2019-02-19T05:59:46.172Z,1.60
2019-02-19T06:02:16.955Z,1.60
2019-02-19T06:04:47.709Z,1.80
2019-02-19T06:07:18.513Z,1.90
2019-02-19T06:09:49.282Z,2.00
2019-02-19T06:12:20.063Z,2.00
2019-02-19T06:14:50.748Z,2.00
2019-02-19T06:17:21.530Z,2.10
2019-02-19T06:19:52.198Z,2.20
2019-02-19T06:22:22.896Z,2.20
2019-02-19T06:24:53.684Z,2.20
2019-02-19T06:27:24.482Z,2.20
2019-02-19T06:29:55.144Z,2.20
2019-02-19T06:32:25.960Z,2.20
2019-02-19T06:34:56.524Z,2.20
2019-02-19T06:37:27.383Z,2.30
2019-02-19T06:39:57.978Z,2.30
2019-02-19T06:42:28.758Z,2.30
2019-02-19T06:44:59.684Z,2.40
2019-02-19T06:47:30.436Z,2.40
2019-02-19T06:50:01.194Z,2.50
2019-02-19T06:52:31.983Z,2.50
2019-02-19T06:55:02.681Z,2.60
2019-02-19T06:57:33.555Z,2.60
2019-02-19T07:00:04.455Z,2.60
2019-02-19T07:02:44.407Z,2.60
2019-02-19T07:05:20.350Z,2.70
2019-02-19T07:07:51.111Z,2.80
2019-02-19T07:10:21.908Z,2.90
2019-02-19T07:12:52.706Z,2.90
2019-02-19T07:15:23.418Z,3.00
2019-02-19T07:17:54.176Z,3.10
2019-02-19T07:20:24.797Z,3.10
2019-02-19T07:22:55.571Z,3.20
2019-02-19T07:25:26.433Z,3.20
2019-02-19T07:27:57.243Z,3.20
2019-02-19T07:30:27.979Z,3.20
2019-02-19T07:32:58.753Z,3.30
2019-02-19T07:35:29.369Z,3.30
2019-02-19T07:38:00.161Z,3.40
2019-02-19T07:40:30.726Z,3.40
2019-02-19T07:43:01.532Z,3.40
2019-02-19T07:45:32.387Z,3.50
2019-02-19T07:48:03.279Z,3.60
2019-02-19T07:50:33.961Z,3.70
2019-02-19T07:53:04.744Z,3.70
2019-02-19T07:55:35.434Z,3.80
2019-02-19T07:58:06.134Z,3.80
2019-02-19T08:00:36.683Z,3.90
2019-02-19T08:03:07.450Z,3.90
2019-02-19T08:05:38.160Z,4.10
2019-02-19T08:08:09.055Z,4.10
2019-02-19T08:10:39.732Z,4.20
2019-02-19T08:13:10.742Z,4.30
2019-02-19T08:15:41.495Z,4.30
2019-02-19T08:18:12.208Z,4.40
2019-02-19T08:20:42.955Z,4.40
2019-02-19T08:23:13.742Z,4.50
2019-02-19T08:25:44.526Z,4.60
2019-02-19T08:28:15.453Z,4.60
2019-02-19T08:30:46.100Z,4.70
2019-02-19T08:33:16.892Z,4.70
2019-02-19T08:35:47.643Z,4.80
2019-02-19T08:38:18.472Z,4.90
2019-02-19T08:40:49.264Z,4.90
2019-02-19T08:43:20.135Z,5.00
2019-02-19T08:45:51.040Z,5.00
2019-02-19T08:48:22.814Z,5.00
2019-02-19T08:50:53.510Z,5.10
2019-02-19T08:53:24.395Z,5.20
2019-02-19T08:55:55.084Z,5.30
2019-02-19T08:58:26.074Z,5.40
2019-02-19T09:00:56.725Z,5.50
2019-02-19T09:03:27.716Z,5.60
2019-02-19T09:05:58.547Z,5.70
2019-02-19T09:08:29.425Z,5.80
2019-02-19T09:11:00.336Z,5.90
2019-02-19T09:13:31.163Z,6.00
2019-02-19T09:16:02.083Z,6.20
2019-02-19T09:18:32.978Z,6.30
2019-02-19T09:21:03.539Z,6.40
2019-02-19T09:23:34.334Z,6.40
2019-02-19T09:26:04.894Z,6.50
2019-02-19T09:28:35.514Z,6.70
2019-02-19T09:31:06.255Z,6.80
2019-02-19T09:33:37.151Z,6.90
2019-02-19T09:36:08.030Z,6.90
2019-02-19T09:38:38.838Z,6.80
2019-02-19T09:41:09.583Z,6.80
2019-02-19T09:43:40.507Z,6.90
2019-02-19T09:46:11.374Z,7.00
2019-02-19T09:48:42.358Z,7.10
2019-02-19T09:51:13.040Z,7.20
2019-02-19T09:53:44.141Z,7.20
2019-02-19T09:56:15.099Z,7.20
2019-02-19T09:58:46.388Z,7.40
2019-02-19T10:01:17.503Z,7.40
2019-02-19T10:03:48.714Z,7.50
2019-02-19T10:06:19.521Z,7.50
2019-02-19T10:08:50.285Z,7.50
2019-02-19T10:11:20.974Z,7.50
2019-02-19T10:13:51.730Z,7.60
2019-02-19T10:16:22.444Z,7.70
2019-02-19T10:18:53.326Z,7.70
2019-02-19T10:21:23.965Z,7.80
2019-02-19T10:23:54.788Z,8.00
2019-02-19T10:26:25.477Z,8.00
2019-02-19T10:28:56.150Z,8.00
2019-02-19T10:31:26.802Z,7.90
2019-02-19T10:33:57.367Z,8.10
2019-02-19T10:36:28.081Z,8.20
2019-02-19T10:38:58.903Z,8.30
2019-02-19T10:41:29.635Z,8.40
2019-02-19T10:44:00.462Z,8.40
2019-02-19T10:46:31.216Z,8.40
2019-02-19T10:49:02.109Z,8.40
2019-02-19T10:51:32.811Z,8.40
2019-02-19T10:54:03.586Z,8.40
2019-02-19T10:56:34.172Z,8.30
2019-02-19T10:59:04.986Z,8.30
2019-02-19T11:01:35.887Z,8.20
2019-02-19T11:04:06.795Z,8.20
2019-02-19T11:06:39.016Z,8.20
2019-02-19T11:09:10.035Z,8.20
2019-02-19T11:11:40.696Z,8.40
2019-02-19T11:14:11.491Z,8.50
2019-02-19T11:16:42.280Z,8.60
2019-02-19T11:19:13.170Z,8.70
2019-02-19T11:21:43.832Z,8.70
2019-02-19T11:24:14.737Z,8.90
2019-02-19T11:26:45.417Z,8.90
2019-02-19T11:29:16.133Z,9.00
2019-02-19T11:31:46.947Z,9.10
2019-02-19T11:34:17.867Z,9.20
2019-02-19T11:36:48.747Z,9.30
2019-02-19T11:39:19.528Z,9.40
2019-02-19T11:41:50.340Z,9.50
2019-02-19T11:44:21.308Z,9.60
2019-02-19T11:46:51.917Z,9.70
2019-02-19T11:49:22.693Z,9.80
2019-02-19T11:51:53.427Z,9.90
2019-02-19T11:54:24.131Z,9.90
2019-02-19T11:56:54.999Z,10.10
2019-02-19T11:59:25.851Z,10.00
2019-02-19T12:01:56.795Z,10.20
2019-02-19T12:04:27.491Z,10.10
2019-02-19T12:06:58.383Z,10.00
2019-02-19T12:09:29.215Z,10.00
2019-02-19T12:12:00.035Z,9.80
2019-02-19T12:14:30.947Z,9.90
2019-02-19T12:17:01.710Z,10.10
2019-02-19T12:19:32.617Z,10.30
2019-02-19T12:22:03.476Z,10.30
2019-02-19T12:24:34.357Z,10.30
2019-02-19T12:27:08.292Z,10.20
2019-02-19T12:29:37.654Z,10.30
2019-02-19T12:32:08.452Z,10.40
2019-02-19T12:34:39.244Z,10.30
2019-02-19T12:37:09.954Z,10.40
2019-02-19T12:39:40.840Z,10.40
2019-02-19T12:42:11.599Z,10.30
2019-02-19T12:44:42.504Z,9.90
2019-02-19T12:47:13.394Z,9.80
2019-02-19T12:49:44.089Z,9.80
2019-02-19T12:52:14.774Z,9.80
2019-02-19T12:54:45.546Z,9.80
2019-02-19T12:57:17.331Z,9.60
2019-02-19T12:59:56.260Z,9.70
2019-02-19T13:02:20.559Z,9.70
2019-02-19T13:04:51.323Z,9.50
2019-02-19T13:07:21.985Z,9.50
2019-02-19T13:09:52.817Z,9.50
2019-02-19T13:12:23.621Z,9.60
2019-02-19T13:14:54.488Z,9.50
2019-02-19T13:17:25.236Z,9.60
2019-02-19T13:19:56.025Z,9.60
2019-02-19T13:22:26.727Z,9.60
2019-02-19T13:24:57.495Z,9.60
2019-02-19T13:27:28.319Z,9.70
2019-02-19T13:32:48.856Z,9.60
2019-02-19T13:35:19.650Z,9.60
2019-02-19T13:37:50.382Z,9.60
2019-02-19T13:40:21.201Z,9.60
2019-02-19T13:42:51.996Z,9.30
2019-02-19T13:45:23.132Z,9.40
2019-02-19T13:47:54.119Z,9.40
2019-02-19T13:50:24.778Z,9.50
2019-02-19T13:53:15.247Z,9.70
2019-02-19T13:55:49.462Z,9.80
2019-02-19T13:58:20.936Z,9.80
2019-02-19T14:00:51.717Z,9.80
2019-02-19T14:03:23.106Z,9.60
2019-02-19T14:05:55.749Z,9.70
2019-02-19T14:08:26.445Z,9.60
2019-02-19T14:10:57.236Z,9.60
2019-02-19T14:13:27.967Z,9.60
2019-02-19T14:16:10.891Z,9.70
2019-02-19T14:18:48.078Z,9.90
2019-02-19T14:21:50.041Z,9.90
2019-02-19T14:24:31.219Z,10.00
2019-02-19T14:27:35.960Z,10.10
2019-02-19T14:30:25.628Z,10.10
2019-02-19T14:33:18.479Z,10.10
2019-02-19T14:36:11.538Z,9.90
2019-02-19T14:39:07.255Z,9.90
2019-02-19T14:42:00.207Z,9.70
2019-02-19T14:44:56.439Z,9.90
2019-02-19T14:48:01.374Z,9.80
2019-02-19T14:51:03.446Z,9.90
2019-02-19T14:53:51.583Z,9.90
2019-02-19T14:56:47.302Z,9.80
2019-02-19T14:59:36.979Z,9.90
2019-02-19T15:02:32.803Z,9.80
2019-02-19T15:05:28.835Z,9.80
2019-02-19T15:08:21.677Z,9.80
2019-02-19T15:11:10.035Z,9.70
2019-02-19T15:14:05.666Z,9.60
2019-02-19T15:16:53.270Z,9.60
2019-02-19T15:19:39.223Z,9.50
2019-02-19T15:22:27.403Z,9.30
2019-02-19T15:25:20.050Z,9.50
2019-02-19T15:28:09.854Z,9.40
2019-02-19T15:31:15.173Z,9.40
2019-02-19T15:34:04.953Z,9.30
2019-02-19T15:36:54.736Z,9.40
2019-02-19T15:39:50.760Z,9.30
2019-02-19T15:42:31.839Z,9.30
2019-02-19T15:45:20.924Z,9.20
2019-02-19T15:48:10.677Z,9.20
2019-02-19T15:51:09.057Z,9.20
2019-02-19T15:53:55.970Z,9.10
2019-02-19T15:56:44.727Z,9.00
2019-02-19T15:59:49.558Z,9.00
2019-02-19T16:02:33.502Z,9.00
2019-02-19T16:05:24.818Z,8.90
2019-02-19T16:08:17.462Z,8.90
2019-02-19T16:11:12.877Z,8.90
2019-02-19T16:13:59.584Z,8.80
2019-02-19T16:16:49.259Z,8.80
2019-02-19T16:19:25.626Z,8.70
2019-02-19T16:22:11.720Z,8.60
2019-02-19T16:25:07.756Z,8.60
2019-02-19T16:27:55.390Z,8.60
2019-02-19T16:30:44.038Z,8.60
2019-02-19T16:33:24.902Z,8.60
2019-02-19T16:36:04.847Z,8.60
2019-02-19T16:38:50.944Z,8.60
2019-02-19T16:41:30.276Z,8.60
2019-02-19T16:44:29.068Z,8.60
2019-02-19T16:47:31.136Z,8.50
2019-02-19T16:50:14.156Z,8.60
2019-02-19T16:52:55.128Z,8.50
2019-02-19T16:55:57.403Z,8.50
2019-02-19T16:58:50.149Z,8.50
2019-02-19T17:01:37.708Z,8.50
2019-02-19T17:04:24.101Z,8.50
2019-02-19T17:07:12.628Z,8.50
2019-02-19T17:10:11.317Z,8.50
2019-02-19T17:13:03.362Z,8.50
2019-02-19T17:16:02.345Z,8.50
2019-02-19T17:18:47.210Z,8.40
2019-02-19T17:21:39.860Z,8.40
2019-02-19T17:24:26.793Z,8.40
2019-02-19T17:27:06.929Z,8.40
2019-02-19T17:29:59.487Z,8.40
2019-02-19T17:32:57.809Z,8.40
2019-02-19T17:35:47.321Z,8.40
2019-02-19T17:38:26.656Z,8.30
2019-02-19T17:41:25.753Z,8.30
2019-02-19T17:44:11.335Z,8.20
2019-02-19T17:47:14.454Z,8.20
2019-02-19T17:49:54.379Z,8.30
2019-02-19T17:52:47.330Z,8.20
2019-02-19T17:55:43.153Z,8.20
2019-02-19T17:58:27.200Z,8.30
2019-02-19T18:01:29.367Z,8.30
2019-02-19T18:04:31.434Z,8.30
2019-02-19T18:07:33.605Z,8.20
2019-02-19T18:10:25.228Z,8.20
2019-02-19T18:13:30.366Z,8.20
2019-02-19T18:16:10.418Z,8.20
2019-02-19T18:18:49.243Z,8.20
2019-02-19T18:21:20.381Z,8.20
2019-02-19T18:23:51.045Z,8.10
2019-02-19T18:26:21.920Z,8.10
2019-02-19T18:28:52.710Z,8.00
2019-02-19T18:31:23.582Z,8.00
2019-02-19T18:33:54.276Z,8.00
2019-02-19T18:36:25.217Z,7.80
2019-02-19T18:38:56.104Z,7.50
2019-02-19T18:41:26.992Z,7.20
2019-02-19T18:43:57.893Z,6.90
2019-02-19T18:46:28.916Z,6.70
2019-02-19T18:48:59.796Z,6.60
2019-02-19T18:51:30.765Z,6.60
2019-02-19T18:54:01.683Z,6.50
2019-02-19T18:56:33.528Z,6.50
2019-02-19T18:59:04.280Z,6.40
2019-02-19T19:01:35.198Z,6.20
2019-02-19T19:04:06.003Z,6.10
2019-02-19T19:06:36.960Z,6.10
2019-02-19T19:09:08.494Z,6.00
2019-02-19T19:11:39.376Z,6.10
2019-02-19T19:14:10.304Z,6.20
2019-02-19T19:16:41.354Z,6.20
2019-02-19T19:19:12.422Z,6.20
2019-02-19T19:21:43.432Z,6.20
2019-02-19T19:24:15.630Z,6.10
2019-02-19T19:26:46.545Z,6.20
2019-02-19T19:29:17.402Z,6.20
2019-02-19T19:31:48.320Z,6.30
2019-02-19T19:34:19.223Z,6.30
2019-02-19T19:36:51.129Z,6.20
2019-02-19T19:39:23.937Z,6.10
2019-02-19T19:41:54.890Z,6.20
2019-02-19T19:44:25.902Z,6.10
2019-02-19T19:46:56.888Z,6.10
2019-02-19T19:49:27.728Z,6.10
2019-02-19T19:51:58.436Z,6.10
2019-02-19T19:54:29.055Z,6.10
2019-02-19T19:57:00.078Z,6.20
2019-02-19T19:59:32.065Z,6.10
2019-02-19T20:02:02.832Z,6.10
2019-02-19T20:04:33.736Z,6.10
2019-02-19T20:07:04.605Z,6.20
2019-02-19T20:09:35.485Z,6.20
2019-02-19T20:12:06.404Z,6.30
2019-02-19T20:14:37.128Z,6.30
2019-02-19T20:17:07.914Z,6.20
2019-02-19T20:19:38.710Z,6.20
2019-02-19T20:22:09.539Z,6.20
2019-02-19T20:24:40.189Z,6.10
2019-02-19T20:27:12.200Z,6.10
2019-02-19T20:29:42.973Z,6.00
2019-02-19T20:32:13.647Z,6.00
2019-02-19T20:34:44.320Z,6.00
2019-02-19T20:37:15.216Z,5.90
2019-02-19T20:39:46.091Z,5.90
2019-02-19T20:42:17.951Z,5.90
2019-02-19T20:44:48.689Z,5.90
2019-02-19T20:47:19.515Z,5.80
2019-02-19T20:49:50.488Z,5.80
2019-02-19T20:52:21.252Z,5.80
2019-02-19T20:54:52.954Z,5.70
2019-02-19T20:57:23.987Z,5.60
2019-02-19T20:59:54.755Z,5.60
2019-02-19T21:02:25.634Z,5.60
2019-02-19T21:04:56.307Z,5.60
2019-02-19T21:07:27.474Z,5.60
2019-02-19T21:09:58.371Z,5.60
2019-02-19T21:12:29.171Z,5.70
2019-02-19T21:14:59.945Z,5.70
2019-02-19T21:17:30.950Z,5.60
2019-02-19T21:20:01.821Z,5.70
2019-02-19T21:22:33.658Z,5.60
2019-02-19T21:25:04.452Z,5.60
2019-02-19T21:27:35.640Z,5.70
2019-02-19T21:30:06.593Z,5.70
2019-02-19T21:32:38.924Z,5.70
2019-02-19T21:35:09.806Z,5.70
2019-02-19T21:37:40.536Z,5.70
2019-02-19T21:40:11.250Z,5.60
2019-02-19T21:42:42.306Z,5.70
2019-02-19T21:45:13.203Z,5.70
2019-02-19T21:47:44.090Z,5.70
2019-02-19T21:50:15.835Z,5.60
2019-02-19T21:52:47.132Z,5.70
2019-02-19T21:55:17.996Z,5.70
2019-02-19T21:57:48.768Z,5.70
2019-02-19T22:00:20.613Z,5.70
2019-02-19T22:02:53.004Z,5.70
2019-02-19T22:05:23.745Z,5.70
2019-02-19T22:07:54.536Z,5.70
2019-02-19T22:10:25.239Z,5.70
2019-02-19T22:12:55.913Z,5.60
2019-02-19T22:15:26.736Z,5.60
2019-02-19T22:17:57.488Z,5.50
2019-02-19T22:20:40.759Z,5.50
2019-02-19T22:23:11.549Z,5.50
2019-02-19T22:25:42.256Z,5.40
2019-02-19T22:28:13.018Z,5.40
2019-02-19T22:30:43.898Z,5.40
2019-02-19T22:33:14.478Z,5.40
2019-02-19T22:35:45.290Z,5.40
2019-02-19T22:38:16.047Z,5.30
2019-02-19T22:40:54.829Z,5.30
2019-02-19T22:43:19.203Z,5.30
2019-02-19T22:45:50.073Z,5.30
2019-02-19T22:48:20.856Z,5.30
2019-02-19T22:50:51.707Z,5.30
2019-02-19T22:53:53.502Z,5.30
2019-02-19T22:56:30.071Z,5.30
2019-02-19T22:59:01.066Z,5.30
2019-02-19T23:01:34.715Z,5.30
2019-02-19T23:04:05.494Z,5.30
2019-02-19T23:06:37.224Z,5.30
2019-02-19T23:09:08.298Z,5.30
2019-02-19T23:11:39.407Z,5.30
2019-02-19T23:14:11.296Z,5.40
2019-02-19T23:16:42.103Z,5.40
2019-02-19T23:19:12.924Z,5.40
2019-02-19T23:21:43.794Z,5.40
2019-02-19T23:24:14.679Z,5.50
2019-02-19T23:26:45.547Z,5.50
2019-02-19T23:29:16.391Z,5.50
2019-02-19T23:31:47.397Z,5.50
2019-02-19T23:34:18.387Z,5.60
2019-02-19T23:37:02.275Z,5.60
2019-02-19T23:39:33.156Z,5.60
2019-02-19T23:42:04.048Z,5.60
2019-02-19T23:44:35.150Z,5.60
2019-02-19T23:47:06.228Z,5.60
2019-02-19T23:49:37.041Z,5.60
2019-02-19T23:52:07.727Z,5.50
2019-02-19T23:54:38.507Z,5.50
2019-02-19T23:57:09.223Z,5.40
2019-02-19T23:59:39.964Z,5.40
